TimePDT,TemperatureF,Dew PointF,Humidity,Sea Level PressureIn,VisibilityMPH,Wind Direction,Wind SpeedMPH,Gust SpeedMPH,PrecipitationIn,Events,Conditions,WindDirDegrees,DateUTC
12:53 AM,48.9,46.0,90,29.89,3.0,Calm,Calm,-,0.04,Rain,Light Rain,0,2012-10-29 07:53:00
1:06 AM,48.2,46.4,93,29.89,2.5,Calm,Calm,-,0.02,Rain,Rain,0,2012-10-29 08:06:00
1:13 AM,48.2,46.4,93,29.88,4.0,Calm,Calm,-,0.03,Rain,Rain,0,2012-10-29 08:13:00
1:53 AM,48.9,45.0,86,29.86,8.0,ENE,4.6,-,0.07,Rain,Light Rain,70,2012-10-29 08:53:00
2:01 AM,48.2,44.6,87,29.85,10.0,ENE,4.6,-,0.01,Rain,Light Rain,70,2012-10-29 09:01:00
2:53 AM,48.0,45.0,89,29.83,7.0,Calm,Calm,-,0.03,Rain,Light Rain,0,2012-10-29 09:53:00
3:13 AM,48.2,44.6,87,29.82,6.0,Calm,Calm,-,N/A,Rain,Light Rain,0,2012-10-29 10:13:00
3:44 AM,48.2,44.6,87,29.81,4.0,Calm,Calm,-,0.05,Rain,Light Rain,0,2012-10-29 10:44:00
3:53 AM,48.0,45.0,89,29.81,2.5,ENE,3.5,-,0.08,Rain,Rain,70,2012-10-29 10:53:00
4:24 AM,48.2,46.4,93,29.81,3.0,Calm,Calm,-,0.07,Rain,Rain,0,2012-10-29 11:24:00
4:37 AM,48.2,44.6,87,29.81,4.0,NNW,4.6,-,N/A,Rain,Rain,330,2012-10-29 11:37:00
4:53 AM,48.0,45.0,89,29.81,4.0,Variable,3.5,-,0.12,Rain,Light Rain,0,2012-10-29 11:53:00
5:03 AM,48.2,46.4,93,29.81,8.0,Calm,Calm,-,0.00,Rain,Light Rain,0,2012-10-29 12:03:00
5:12 AM,48.2,46.4,93,29.81,8.0,Calm,Calm,-,0.01,Rain,Light Rain,0,2012-10-29 12:12:00
5:26 AM,48.2,44.6,87,29.81,6.0,Calm,Calm,-,0.02,Rain,Light Rain,0,2012-10-29 12:26:00
5:53 AM,51.1,46.9,86,29.82,6.0,West,4.6,-,0.05,Rain,Light Rain,260,2012-10-29 12:53:00
6:53 AM,50.0,46.9,89,29.82,8.0,Calm,Calm,-,0.01,,Overcast,0,2012-10-29 13:53:00
7:53 AM,54.0,50.0,86,29.84,10.0,WSW,8.1,-,N/A,,Overcast,240,2012-10-29 14:53:00
8:09 AM,55.4,48.2,77,29.84,10.0,SW,9.2,-,N/A,,Overcast,230,2012-10-29 15:09:00
8:11 AM,55.4,48.2,77,29.84,10.0,WSW,8.1,-,N/A,,Overcast,240,2012-10-29 15:11:00
8:51 AM,55.4,48.2,77,29.86,10.0,SW,6.9,-,N/A,,Mostly Cloudy,220,2012-10-29 15:51:00
8:53 AM,55.0,48.9,80,29.86,10.0,SW,8.1,-,N/A,,Mostly Cloudy,220,2012-10-29 15:53:00
9:24 AM,55.4,48.2,77,29.86,10.0,WSW,8.1,-,N/A,,Overcast,240,2012-10-29 16:24:00
9:53 AM,55.9,50.0,80,29.86,10.0,SW,15.0,20.7,N/A,,Overcast,230,2012-10-29 16:53:00
10:53 AM,57.9,50.0,75,29.86,10.0,SW,12.7,21.9,N/A,,Overcast,230,2012-10-29 17:53:00
11:53 AM,62.1,51.1,67,29.87,10.0,SW,19.6,25.3,N/A,,Mostly Cloudy,230,2012-10-29 18:53:00
12:36 PM,62.6,50.0,63,29.88,10.0,SW,17.3,25.3,N/A,,Scattered Clouds,230,2012-10-29 19:36:00
12:53 PM,64.0,48.9,58,29.88,10.0,SW,23.0,29.9,N/A,,Mostly Cloudy,230,2012-10-29 19:53:00
1:53 PM,64.0,48.0,56,29.88,10.0,WSW,13.8,27.6,N/A,,Mostly Cloudy,250,2012-10-29 20:53:00
2:53 PM,64.0,48.0,56,29.90,10.0,WSW,16.1,-,N/A,,Mostly Cloudy,240,2012-10-29 21:53:00
3:53 PM,63.0,46.0,54,29.92,10.0,SW,18.4,28.8,N/A,,Mostly Cloudy,230,2012-10-29 22:53:00
4:53 PM,62.1,44.1,52,29.96,10.0,SW,18.4,-,N/A,,Mostly Cloudy,230,2012-10-29 23:53:00
5:53 PM,57.9,46.9,67,29.97,10.0,SW,11.5,-,N/A,,Scattered Clouds,220,2012-10-30 00:53:00
6:53 PM,57.0,44.1,62,29.99,10.0,SW,9.2,-,N/A,,Partly Cloudy,230,2012-10-30 01:53:00
7:53 PM,55.9,44.1,64,29.99,10.0,SW,8.1,-,N/A,,Clear,230,2012-10-30 02:53:00
8:53 PM,54.0,43.0,66,30.00,10.0,WSW,4.6,-,N/A,,Clear,240,2012-10-30 03:53:00
9:53 PM,48.9,43.0,80,30.03,10.0,NNE,3.5,-,N/A,,Clear,20,2012-10-30 04:53:00
10:53 PM,48.0,43.0,83,30.03,10.0,NE,4.6,-,N/A,,Clear,50,2012-10-30 05:53:00
11:53 PM,48.0,42.1,80,30.03,10.0,ENE,3.5,-,N/A,,Clear,70,2012-10-30 06:53:00